Time;durP1;ratioP1;P1;durP2;ratioP2;P2;SDS_P1;SDS_P2;PMS_P1;PMS_P2;Temp;Humidity;BMP_temperature;BMP_pressure;BME280_temperature;BME280_humidity;BME280_pressure;Samples;Min_cycle;Max_cycle;Signal;HPM_P1;HPM_P2
2022/07/07 00:02:19;;;;;;;2.42;0.90;;;;;;;16.55;100.00;99475.11;1701846;84;21009;-64
2022/07/07 00:04:46;;;;;;;2.37;0.60;;;;;;;16.51;100.00;99479.64;1701204;84;21159;-62
2022/07/07 00:07:13;;;;;;;2.70;0.80;;;;;;;16.46;100.00;99479.20;1707814;84;21039;-62
2022/07/07 00:09:41;;;;;;;2.95;0.65;;;;;;;16.44;100.00;99475.95;1710906;83;21497;-64
2022/07/07 00:12:08;;;;;;;0.90;0.50;;;;;;;16.42;100.00;99476.28;1693718;84;21477;-63
2022/07/07 00:14:36;;;;;;;1.60;0.57;;;;;;;16.37;100.00;99467.35;1706854;83;21608;-65
2022/07/07 00:17:03;;;;;;;1.92;0.68;;;;;;;16.32;100.00;99461.45;1692747;84;21046;-63
2022/07/07 00:19:30;;;;;;;2.67;0.60;;;;;;;16.31;100.00;99466.69;1692460;83;21089;-62
2022/07/07 00:21:56;;;;;;;;;;;;;;;16.25;100.00;99474.02;1695357;84;21053;-62
2022/07/07 00:24:22;;;;;;;2.83;0.75;;;;;;;16.18;100.00;99474.47;1695773;82;20113;-65
2022/07/07 00:26:49;;;;;;;;;;;;;;;16.11;100.00;99473.29;1714033;84;21611;-64
2022/07/07 00:29:15;;;;;;;2.22;0.60;;;;;;;16.09;100.00;99472.22;1710527;83;20115;-64
2022/07/07 00:31:43;;;;;;;1.27;0.50;;;;;;;16.01;100.00;99473.00;1711324;84;21511;-64
2022/07/07 00:34:10;;;;;;;1.05;0.40;;;;;;;15.97;100.00;99469.81;1711594;84;21067;-64
2022/07/07 00:36:39;;;;;;;;;;;;;;;15.90;100.00;99475.19;1692460;84;21035;-64
2022/07/07 00:39:05;;;;;;;3.02;0.40;;;;;;;15.87;100.00;99459.33;1669505;84;20126;-63
2022/07/07 00:41:31;;;;;;;1.75;0.50;;;;;;;15.74;100.00;99451.98;1673497;86;21419;-63
2022/07/07 00:43:58;;;;;;;0.90;0.40;;;;;;;15.69;100.00;99443.08;1664201;85;21535;-64
2022/07/07 00:46:25;;;;;;;2.92;0.50;;;;;;;15.63;100.00;99448.41;1662237;85;21063;-65
2022/07/07 00:48:51;;;;;;;0.93;0.30;;;;;;;15.58;100.00;99446.63;1666858;86;21590;-64
2022/07/07 00:51:18;;;;;;;1.67;0.45;;;;;;;15.54;100.00;99449.73;1673262;86;21104;-62
2022/07/07 00:53:45;;;;;;;7.10;0.50;;;;;;;15.49;100.00;99455.34;1671917;86;21095;-64
2022/07/07 00:56:11;;;;;;;2.00;0.40;;;;;;;15.44;100.00;99469.16;1667389;85;21126;-64
2022/07/07 00:58:38;;;;;;;2.20;0.60;;;;;;;15.39;100.00;99474.75;1676946;85;21079;-64
2022/07/07 01:01:05;;;;;;;2.50;0.40;;;;;;;15.37;100.00;99472.30;1677396;85;21106;-62
2022/07/07 01:03:31;;;;;;;1.12;0.45;;;;;;;15.35;100.00;99471.81;1673203;85;21629;-62
2022/07/07 01:05:58;;;;;;;;;;;;;;;15.32;100.00;99476.55;1671838;85;21054;-63
2022/07/07 01:08:26;;;;;;;1.67;0.40;;;;;;;15.28;100.00;99480.20;1634462;86;20142;-63
2022/07/07 01:10:53;;;;;;;1.20;0.30;;;;;;;15.19;100.00;99490.30;1665671;86;21050;-63
2022/07/07 01:13:19;;;;;;;1.82;0.30;;;;;;;15.13;100.00;99493.69;1665999;86;21519;-63
2022/07/07 01:15:46;;;;;;;1.80;0.40;;;;;;;15.12;100.00;99492.09;1666158;85;21062;-63
2022/07/07 01:18:13;;;;;;;0.82;0.28;;;;;;;15.10;100.00;99503.09;1657375;85;21035;-63
2022/07/07 01:20:45;;;;;;;1.22;0.30;;;;;;;15.10;100.00;99508.02;1669251;85;21054;-63
2022/07/07 01:23:13;;;;;;;4.40;0.30;;;;;;;15.11;100.00;99505.53;1663581;85;21103;-63
2022/07/07 01:25:40;;;;;;;1.15;0.23;;;;;;;15.15;100.00;99508.48;1664213;85;21024;-64
2022/07/07 01:28:07;;;;;;;2.55;0.40;;;;;;;15.13;100.00;99515.63;1682314;85;21032;-63
2022/07/07 01:30:34;;;;;;;2.62;0.37;;;;;;;15.12;100.00;99519.50;1686226;85;21047;-64
2022/07/07 01:33:00;;;;;;;1.10;0.30;;;;;;;15.12;100.00;99516.77;1663390;85;21163;-64
2022/07/07 01:35:27;;;;;;;2.30;0.30;;;;;;;15.12;100.00;99515.39;1670156;84;21087;-64
2022/07/07 01:37:53;;;;;;;1.45;0.30;;;;;;;15.13;100.00;99518.36;1681270;84;21978;-64
2022/07/07 01:40:20;;;;;;;2.92;0.30;;;;;;;15.11;100.00;99512.39;1686794;84;21096;-64
2022/07/07 01:42:46;;;;;;;;;;;;;;;15.12;100.00;99518.14;1689965;84;21007;-63
2022/07/07 01:45:12;;;;;;;2.02;0.40;;;;;;;15.10;100.00;99520.35;1698951;84;20129;-64
2022/07/07 01:47:39;;;;;;;1.47;0.40;;;;;;;15.06;100.00;99519.34;1693146;84;20980;-63
2022/07/07 01:50:06;;;;;;;2.22;0.50;;;;;;;15.07;100.00;99524.27;1696080;84;21002;-63
2022/07/07 01:52:35;;;;;;;1.20;0.30;;;;;;;15.08;100.00;99518.48;1691761;84;21585;-63
2022/07/07 01:55:02;;;;;;;1.52;0.30;;;;;;;15.10;100.00;99510.76;1699044;84;20990;-64
2022/07/07 01:57:30;;;;;;;3.37;0.30;;;;;;;15.12;100.00;99512.66;1689225;84;21032;-63
2022/07/07 01:59:57;;;;;;;1.20;0.30;;;;;;;15.11;100.00;99514.31;1715452;82;21053;-64
2022/07/07 02:02:23;;;;;;;;;;;;;;;15.10;100.00;99512.69;1689795;84;21020;-64
2022/07/07 02:04:49;;;;;;;0.98;0.30;;;;;;;15.09;100.00;99511.08;1699042;84;20113;-63
2022/07/07 02:09:21;;;;;;;2.75;0.47;;;;;;;15.06;100.00;99497.41;1769614;78;22842;-64
2022/07/07 02:11:47;;;;;;;1.42;0.40;;;;;;;14.99;100.00;99516.20;1743975;82;21034;-62
2022/07/07 02:14:14;;;;;;;2.65;0.50;;;;;;;14.99;100.00;99516.20;1750250;80;21601;-63
2022/07/07 02:16:41;;;;;;;1.85;0.40;;;;;;;15.02;100.00;99508.73;1742456;81;21077;-63
2022/07/07 02:19:08;;;;;;;2.12;0.40;;;;;;;15.07;100.00;99516.86;1726703;81;21071;-62
2022/07/07 02:21:35;;;;;;;2.12;0.40;;;;;;;15.09;100.00;99511.87;1707780;82;21069;-64
2022/07/07 02:24:03;;;;;;;2.15;0.40;;;;;;;15.12;100.00;99519.50;1734325;82;21174;-63
2022/07/07 02:26:33;;;;;;;4.75;0.75;;;;;;;15.11;100.00;99518.43;1735875;81;20979;-62
2022/07/07 02:29:01;;;;;;;3.37;0.50;;;;;;;15.10;100.00;99538.17;1725530;81;21062;-63
2022/07/07 02:31:30;;;;;;;3.17;0.50;;;;;;;15.08;100.00;99535.50;1724822;83;21042;-62
2022/07/07 02:33:57;;;;;;;1.57;0.30;;;;;;;15.13;100.00;99527.96;1724436;82;21086;-62
2022/07/07 02:36:23;;;;;;;2.83;0.72;;;;;;;15.13;100.00;99530.70;1724568;81;21074;-65
2022/07/07 02:38:50;;;;;;;1.30;0.55;;;;;;;15.16;100.00;99523.23;1729834;81;21569;-63
2022/07/07 02:41:19;;;;;;;1.30;0.50;;;;;;;15.17;100.00;99518.56;1750646;82;21038;-64
2022/07/07 02:43:46;;;;;;;4.10;0.78;;;;;;;15.19;100.00;99526.76;1734413;82;21571;-63
2022/07/07 02:46:12;;;;;;;3.12;0.50;;;;;;;15.21;100.00;99534.11;1730711;83;20994;-64
2022/07/07 02:48:39;;;;;;;1.72;0.60;;;;;;;15.24;100.00;99533.48;1727864;81;21073;-62
2022/07/07 02:51:05;;;;;;;3.67;0.68;;;;;;;15.25;100.00;99528.27;1729091;81;20999;-64
2022/07/07 02:53:34;;;;;;;1.40;0.70;;;;;;;15.27;100.00;99519.16;1749713;80;21113;-65
2022/07/07 02:56:01;;;;;;;2.47;0.60;;;;;;;15.26;100.00;99523.59;1744798;81;21066;-64
2022/07/07 02:58:27;;;;;;;3.85;1.05;;;;;;;15.26;100.00;99521.67;1726023;81;21502;-64
2022/07/07 03:00:54;;;;;;;7.20;0.82;;;;;;;15.29;100.00;99517.48;1740639;81;20947;-63
2022/07/07 03:03:21;;;;;;;2.50;0.70;;;;;;;15.31;100.00;99516.05;1750640;80;21681;-64
2022/07/07 03:05:47;;;;;;;3.77;0.80;;;;;;;15.30;100.00;99517.16;1720194;82;21023;-62
2022/07/07 03:08:14;;;;;;;5.20;0.80;;;;;;;15.32;100.00;99521.80;1720137;81;21633;-62
2022/07/07 03:10:40;;;;;;;;;;;;;;;15.40;100.00;99527.13;1728022;82;21551;-64
2022/07/07 03:13:07;;;;;;;4.12;0.95;;;;;;;15.42;100.00;99526.23;1719088;82;20107;-63
2022/07/07 03:15:34;;;;;;;1.22;0.70;;;;;;;15.36;100.00;99522.81;1728562;82;21000;-64
2022/07/07 03:18:02;;;;;;;4.33;0.90;;;;;;;15.34;100.00;99534.63;1711672;82;21586;-63
2022/07/07 03:20:29;;;;;;;1.70;0.90;;;;;;;15.35;100.00;99536.27;1712399;82;20960;-63
2022/07/07 03:22:56;;;;;;;2.65;0.82;;;;;;;15.38;100.00;99553.47;1715899;82;21594;-63
2022/07/07 03:25:22;;;;;;;3.33;0.70;;;;;;;15.41;100.00;99552.03;1691024;82;20975;-64
2022/07/07 03:27:49;;;;;;;1.57;0.88;;;;;;;15.42;100.00;99550.37;1711365;82;21071;-64
2022/07/07 03:30:16;;;;;;;1.92;0.80;;;;;;;15.42;100.00;99564.08;1713810;82;20955;-64
2022/07/07 03:32:42;;;;;;;3.27;0.80;;;;;;;15.45;100.00;99564.84;1706879;84;21019;-63
2022/07/07 03:35:09;;;;;;;2.62;0.70;;;;;;;15.49;100.00;99567.80;1710998;82;21004;-64
2022/07/07 03:37:36;;;;;;;2.95;0.72;;;;;;;15.51;100.00;99577.93;1711468;82;20992;-64
2022/07/07 03:40:04;;;;;;;4.00;1.00;;;;;;;15.52;100.00;99569.93;1713860;82;21484;-62
2022/07/07 03:42:31;;;;;;;1.60;0.90;;;;;;;15.54;100.00;99568.27;1711042;82;21006;-64
2022/07/07 03:44:58;;;;;;;6.47;0.70;;;;;;;15.53;100.00;99563.89;1708605;82;21000;-63
2022/07/07 03:47:24;;;;;;;4.58;0.90;;;;;;;15.53;100.00;99578.42;1711347;84;20996;-64
2022/07/07 03:49:50;;;;;;;;;;;;;;;15.51;100.00;99573.81;1713827;82;21491;-63
2022/07/07 03:52:17;;;;;;;1.60;0.70;;;;;;;15.54;100.00;99580.61;1724603;82;20134;-63
2022/07/07 03:54:43;;;;;;;2.35;0.70;;;;;;;15.52;100.00;99580.91;1718388;81;21063;-63
2022/07/07 03:57:10;;;;;;;;;;;;;;;15.53;100.00;99582.53;1719266;82;21571;-65
2022/07/07 03:59:37;;;;;;;3.20;0.82;;;;;;;15.52;100.00;99586.97;1694718;82;20108;-65
2022/07/07 04:02:04;;;;;;;2.02;0.72;;;;;;;15.50;100.00;99585.90;1726561;82;21015;-63
2022/07/07 04:04:31;;;;;;;2.30;0.90;;;;;;;15.53;100.00;99589.39;1724777;81;21589;-64
2022/07/07 04:06:57;;;;;;;2.60;1.02;;;;;;;15.59;100.00;99577.77;1711292;84;21110;-62
2022/07/07 04:09:23;;;;;;;3.65;0.90;;;;;;;15.61;100.00;99579.07;1729207;82;21423;-63
2022/07/07 04:11:50;;;;;;;2.33;0.80;;;;;;;15.60;100.00;99569.77;1728712;81;21061;-64
2022/07/07 04:14:17;;;;;;;2.90;0.70;;;;;;;15.60;100.00;99573.33;1727153;81;21078;-64
2022/07/07 04:16:44;;;;;;;4.58;1.00;;;;;;;15.62;100.00;99566.17;1680500;84;21430;-64
2022/07/07 04:19:10;;;;;;;2.00;0.80;;;;;;;15.61;100.00;99568.66;1654936;85;21118;-64
2022/07/07 04:21:37;;;;;;;4.95;1.00;;;;;;;15.60;100.00;99579.37;1671830;85;20976;-64
2022/07/07 04:24:04;;;;;;;2.12;0.80;;;;;;;15.60;100.00;99578.81;1675134;85;21067;-64
2022/07/07 04:26:32;;;;;;;2.87;1.07;;;;;;;15.64;100.00;99579.01;1677495;85;21509;-63
2022/07/07 04:28:58;;;;;;;2.15;0.80;;;;;;;15.65;100.00;99575.97;1677418;84;21079;-64
2022/07/07 04:31:24;;;;;;;;;;;;;;;15.70;100.00;99581.32;1680335;85;21012;-64
2022/07/07 04:33:51;;;;;;;2.70;1.07;;;;;;;15.75;100.00;99577.11;1687129;83;20135;-65
2022/07/07 04:36:17;;;;;;;4.33;1.22;;;;;;;15.75;100.00;99576.28;1691341;84;20995;-64
2022/07/07 04:38:44;;;;;;;4.62;1.40;;;;;;;15.78;100.00;99574.29;1660702;84;21051;-62
2022/07/07 04:41:10;;;;;;;2.92;1.40;;;;;;;15.84;100.00;99568.37;1704565;83;21395;-65
2022/07/07 04:43:37;;;;;;;2.33;1.05;;;;;;;15.92;100.00;99572.31;1691063;83;21562;-64
2022/07/07 04:46:04;;;;;;;4.58;1.30;;;;;;;15.94;100.00;99584.59;1678858;85;21011;-64
2022/07/07 04:48:30;;;;;;;4.70;1.40;;;;;;;15.99;100.00;99594.66;1684833;85;21102;-64
2022/07/07 04:50:57;;;;;;;2.92;1.20;;;;;;;16.03;100.00;99587.98;1676362;84;21475;-63
2022/07/07 04:53:23;;;;;;;2.55;1.20;;;;;;;16.04;100.00;99591.80;1673569;84;21135;-63
2022/07/07 04:55:50;;;;;;;2.83;1.20;;;;;;;16.06;100.00;99586.80;1677526;85;21013;-64
2022/07/07 04:58:17;;;;;;;2.83;1.30;;;;;;;16.08;100.00;99585.12;1684922;85;21101;-63
2022/07/07 05:00:43;;;;;;;2.77;1.02;;;;;;;16.07;100.00;99594.48;1681395;84;20980;-62
2022/07/07 05:03:10;;;;;;;2.33;1.05;;;;;;;16.14;100.00;99592.11;1676688;84;21055;-63
2022/07/07 05:05:37;;;;;;;2.40;1.05;;;;;;;16.24;100.00;99600.09;1673707;85;21039;-63
2022/07/07 05:08:04;;;;;;;3.37;1.05;;;;;;;16.28;100.00;99597.80;1684165;85;21025;-63
2022/07/07 05:10:30;;;;;;;2.55;1.17;;;;;;;16.25;100.00;99592.93;1672103;84;20979;-63
2022/07/07 05:12:57;;;;;;;3.45;0.85;;;;;;;16.18;100.00;99591.19;1661554;84;21127;-63
2022/07/07 05:15:23;;;;;;;2.83;0.90;;;;;;;16.18;100.00;99587.06;1722776;82;21015;-64
2022/07/07 05:17:50;;;;;;;;;;;;;;;16.25;100.00;99587.44;1731516;82;21020;-65
2022/07/07 05:20:16;;;;;;;3.58;0.85;;;;;;;16.22;100.00;99587.25;1716404;82;20454;-63
2022/07/07 05:22:42;;;;;;;;;;;;;;;16.19;100.00;99589.25;1721672;81;21788;-64
2022/07/07 05:25:10;;;;;;;3.62;0.80;;;;;;;16.19;100.00;99594.75;1688765;83;20102;-63
2022/07/07 05:27:38;;;;;;;1.45;0.70;;;;;;;16.18;100.00;99609.03;1718166;82;20975;-64
2022/07/07 05:30:05;;;;;;;3.47;0.70;;;;;;;16.23;100.00;99612.20;1713847;82;21035;-63
2022/07/07 05:32:33;;;;;;;3.58;0.85;;;;;;;16.24;100.00;99606.41;1711439;82;21027;-63
2022/07/07 05:34:59;;;;;;;;;;;;;;;16.27;100.00;99615.39;1683314;84;21015;-63
2022/07/07 05:37:26;;;;;;;3.20;0.65;;;;;;;16.35;100.00;99616.58;1668832;85;20407;-63
2022/07/07 05:39:52;;;;;;;2.02;0.55;;;;;;;16.33;100.00;99618.25;1716510;82;21063;-63
2022/07/07 05:42:18;;;;;;;;;;;;;;;16.35;100.00;99616.02;1713981;82;20979;-64
2022/07/07 05:44:45;;;;;;;1.98;0.60;;;;;;;16.41;100.00;99617.51;1707840;81;20167;-63
2022/07/07 05:47:11;;;;;;;2.65;0.90;;;;;;;16.42;100.00;99615.02;1709558;82;21059;-65
2022/07/07 05:49:38;;;;;;;1.95;0.60;;;;;;;16.46;100.00;99617.14;1719654;82;21051;-64
2022/07/07 05:52:04;;;;;;;;;;;;;;;16.52;100.00;99630.43;1721261;82;21043;-64
2022/07/07 05:54:31;;;;;;;1.30;0.70;;;;;;;16.56;100.00;99631.46;1707054;82;20127;-63
2022/07/07 05:56:58;;;;;;;1.62;0.90;;;;;;;16.56;100.00;99627.90;1703365;82;21035;-64
2022/07/07 05:59:24;;;;;;;0.80;0.70;;;;;;;16.54;100.00;99632.32;1714698;82;21122;-64
2022/07/07 06:01:51;;;;;;;2.35;1.00;;;;;;;16.64;100.00;99636.77;1711484;82;21046;-64
2022/07/07 06:04:18;;;;;;;1.77;1.20;;;;;;;16.76;100.00;99636.98;1692030;83;21135;-64
2022/07/07 06:06:44;;;;;;;;;;;;;;;16.85;100.00;99633.18;1708711;82;20996;-64
2022/07/07 06:09:10;;;;;;;3.62;1.00;;;;;;;16.92;100.00;99632.72;1712111;82;20147;-63
2022/07/07 06:11:37;;;;;;;2.72;1.10;;;;;;;16.95;100.00;99632.09;1708487;82;21463;-64
2022/07/07 06:14:03;;;;;;;;;;;;;;;17.08;100.00;99639.98;1717384;83;21607;-64
2022/07/07 06:16:38;;;;;;;1.45;1.20;;;;;;;17.14;100.00;99631.30;1716944;82;20430;-64
2022/07/07 06:19:06;;;;;;;4.75;1.30;;;;;;;17.07;100.00;99636.45;1721817;82;21086;-62
2022/07/07 06:21:32;;;;;;;3.05;1.20;;;;;;;17.12;100.00;99640.97;1721203;82;21483;-64
2022/07/07 06:23:59;;;;;;;2.20;1.20;;;;;;;17.25;100.00;99641.45;1719721;82;21099;-62
2022/07/07 06:26:25;;;;;;;;;;;;;;;17.38;100.00;99637.20;1719501;83;21110;-64
2022/07/07 06:28:52;;;;;;;1.85;1.20;;;;;;;17.51;100.00;99634.08;1657532;85;20170;-64
2022/07/07 06:31:19;;;;;;;1.40;0.95;;;;;;;17.63;100.00;99640.38;1707291;82;20964;-64
2022/07/07 06:33:45;;;;;;;2.60;1.30;;;;;;;17.85;100.00;99623.74;1711651;82;21035;-64
2022/07/07 06:36:12;;;;;;;3.58;1.10;;;;;;;18.14;100.00;99626.66;1710998;84;21492;-63
2022/07/07 06:38:38;;;;;;;2.30;1.02;;;;;;;18.36;100.00;99620.16;1711265;82;21059;-63
2022/07/07 06:41:05;;;;;;;2.72;1.05;;;;;;;18.43;100.00;99605.32;1711929;82;20956;-64
2022/07/07 06:43:32;;;;;;;3.35;1.00;;;;;;;18.61;100.00;99621.30;1708936;81;21063;-62
2022/07/07 06:45:58;;;;;;;1.92;0.80;;;;;;;18.87;100.00;99619.30;1686661;84;20974;-63
2022/07/07 06:48:24;;;;;;;1.12;0.80;;;;;;;19.10;100.00;99614.33;1680117;83;21060;-62
2022/07/07 06:50:51;;;;;;;2.70;0.80;;;;;;;19.24;100.00;99607.45;1701263;82;20996;-62
2022/07/07 06:53:18;;;;;;;1.98;1.00;;;;;;;19.28;100.00;99602.89;1724231;81;21031;-62
2022/07/07 06:55:44;;;;;;;0.95;0.80;;;;;;;19.35;100.00;99610.64;1713188;82;20946;-63
2022/07/07 06:58:10;;;;;;;2.47;0.80;;;;;;;19.33;100.00;99610.99;1712776;82;21027;-63
2022/07/07 07:00:38;;;;;;;1.82;0.90;;;;;;;19.41;100.00;99616.80;1719429;82;20987;-63
2022/07/07 07:03:06;;;;;;;1.65;0.75;;;;;;;19.44;100.00;99609.27;1715850;82;21440;-63
2022/07/07 07:05:34;;;;;;;2.15;0.72;;;;;;;19.43;100.00;99604.87;1681900;84;20998;-63
2022/07/07 07:08:03;;;;;;;1.80;0.80;;;;;;;19.42;100.00;99606.01;1715340;82;21543;-63
2022/07/07 07:10:29;;;;;;;1.20;0.60;;;;;;;19.42;100.00;99598.53;1680293;83;20987;-62
2022/07/07 07:12:56;;;;;;;2.12;0.70;;;;;;;19.45;100.00;99610.89;1712783;82;21658;-64
2022/07/07 07:15:23;;;;;;;1.87;0.60;;;;;;;19.67;100.00;99604.48;1670404;85;21011;-63
2022/07/07 07:17:49;;;;;;;1.22;0.60;;;;;;;20.16;100.00;99601.42;1712350;83;21468;-64
2022/07/07 07:20:16;;;;;;;0.62;0.50;;;;;;;20.60;100.00;99592.98;1693388;82;21513;-63
2022/07/07 07:22:42;;;;;;;2.58;0.68;;;;;;;20.60;100.00;99588.84;1712938;82;21467;-64
2022/07/07 07:25:10;;;;;;;1.00;0.60;;;;;;;20.46;100.00;99592.48;1704128;82;21563;-62
2022/07/07 07:27:38;;;;;;;2.12;0.50;;;;;;;20.48;100.00;99597.09;1713995;82;21036;-64
2022/07/07 07:30:06;;;;;;;1.77;0.65;;;;;;;20.57;100.00;99599.20;1716735;82;21031;-62
2022/07/07 07:32:33;;;;;;;0.82;0.55;;;;;;;20.60;100.00;99603.23;1729489;81;21401;-63
2022/07/07 07:35:00;;;;;;;1.42;0.70;;;;;;;20.84;100.00;99592.23;1711830;82;21003;-65
2022/07/07 07:37:26;;;;;;;5.20;0.80;;;;;;;21.28;100.00;99595.55;1709042;82;21554;-66
2022/07/07 07:39:53;;;;;;;1.67;0.70;;;;;;;21.27;100.00;99599.46;1705600;83;21097;-65
2022/07/07 07:42:20;;;;;;;1.95;0.60;;;;;;;21.27;100.00;99599.46;1681307;83;21501;-64
2022/07/07 07:47:32;;;;;;;2.15;0.60;;;;;;;21.14;100.00;99601.19;1713251;82;21467;-64
2022/07/07 07:49:59;;;;;;;0.85;0.60;;;;;;;20.99;100.00;99601.83;1680581;84;21039;-65
2022/07/07 07:52:25;;;;;;;1.12;0.70;;;;;;;20.88;100.00;99606.19;1713173;82;21011;-62
2022/07/07 07:54:54;;;;;;;2.42;0.70;;;;;;;21.02;100.00;99610.25;1711326;82;21585;-63
2022/07/07 07:57:20;;;;;;;1.12;0.70;;;;;;;21.06;100.00;99606.22;1712852;83;21056;-64
2022/07/07 07:59:52;;;;;;;2.08;0.70;;;;;;;21.11;100.00;99608.23;1681761;84;21652;-64
2022/07/07 08:02:15;;;;;;;3.12;0.88;;;;;;;21.38;100.00;99599.00;1680510;83;21015;-63
2022/07/07 08:04:42;;;;;;;2.60;0.60;;;;;;;21.54;100.00;99600.70;1709534;82;21079;-62
2022/07/07 08:07:08;;;;;;;3.22;0.70;;;;;;;21.70;100.00;99611.33;1681801;85;21593;-63
2022/07/07 08:09:35;;;;;;;2.77;0.57;;;;;;;21.89;100.00;99606.56;1725038;81;21054;-64
2022/07/07 08:12:03;;;;;;;2.30;0.70;;;;;;;22.05;100.00;99594.99;1726489;81;21027;-63
2022/07/07 08:14:31;;;;;;;1.17;0.50;;;;;;;22.57;100.00;99603.78;1727333;81;21059;-63
2022/07/07 08:16:58;;;;;;;2.12;0.50;;;;;;;22.57;100.00;99603.78;1729123;82;21039;-64
2022/07/07 08:19:27;;;;;;;3.17;0.70;;;;;;;22.57;100.00;99606.56;1696186;83;21117;-63
2022/07/07 08:21:53;;;;;;;1.87;0.70;;;;;;;22.59;100.00;99597.32;1671308;84;20989;-63
2022/07/07 08:24:20;;;;;;;0.80;0.50;;;;;;;22.69;100.00;99595.44;1692448;83;21575;-65
2022/07/07 08:26:46;;;;;;;1.62;0.60;;;;;;;22.53;100.00;99605.68;1691375;83;21015;-64
2022/07/07 08:29:16;;;;;;;1.50;0.55;;;;;;;22.44;100.00;99616.92;1694083;83;21618;-63
2022/07/07 08:31:42;;;;;;;1.82;0.60;;;;;;;22.44;100.00;99604.44;1693162;83;21057;-64
2022/07/07 08:34:09;;;;;;;1.87;0.60;;;;;;;22.38;100.00;99610.02;1694971;83;21138;-65
2022/07/07 08:36:38;;;;;;;1.75;0.50;;;;;;;22.55;100.00;99608.89;1693682;83;21444;-63
2022/07/07 08:39:07;;;;;;;3.80;0.70;;;;;;;22.82;100.00;99603.91;1689277;82;21058;-63
2022/07/07 08:41:35;;;;;;;2.60;0.70;;;;;;;23.09;100.00;99605.02;1686246;84;20999;-64
2022/07/07 08:44:03;;;;;;;1.10;0.60;;;;;;;23.11;100.00;99609.05;1686186;83;21080;-65
2022/07/07 08:46:30;;;;;;;1.25;0.70;;;;;;;23.07;100.00;99610.92;1688273;84;20988;-63
2022/07/07 08:48:57;;;;;;;1.30;0.60;;;;;;;22.98;100.00;99610.30;1694244;83;21513;-65
2022/07/07 08:51:24;;;;;;;3.17;0.70;;;;;;;22.91;100.00;99614.28;1696298;83;21431;-64
2022/07/07 08:53:50;;;;;;;2.22;0.80;;;;;;;22.89;100.00;99616.59;1693925;83;21126;-68
2022/07/07 08:56:17;;;;;;;0.85;0.60;;;;;;;22.93;100.00;99616.10;1674745;85;21527;-65
2022/07/07 08:58:45;;;;;;;1.45;0.57;;;;;;;22.92;100.00;99623.41;1675374;84;21069;-66
2022/07/07 09:01:11;;;;;;;1.17;0.50;;;;;;;23.13;100.00;99623.97;1676592;85;21093;-66
2022/07/07 09:03:38;;;;;;;2.15;0.80;;;;;;;23.21;100.00;99628.52;1672045;84;21067;-65
2022/07/07 09:06:06;;;;;;;1.45;0.50;;;;;;;23.16;100.00;99629.61;1680550;84;21054;-66
2022/07/07 09:08:33;;;;;;;2.58;0.60;;;;;;;23.02;100.00;99630.64;1677429;84;21058;-66
2022/07/07 09:11:00;;;;;;;1.07;0.50;;;;;;;22.83;100.00;99624.14;1662960;85;21664;-66
2022/07/07 09:13:29;;;;;;;2.12;0.80;;;;;;;22.75;100.00;99628.69;1660044;85;21659;-66
2022/07/07 09:16:02;;;;;;;1.72;0.80;;;;;;;22.60;100.00;99635.78;1663625;85;21058;-66
2022/07/07 09:18:41;;;;;;;1.62;0.78;;;;;;;22.62;100.00;99632.09;1659253;84;21577;-65
2022/07/07 09:21:29;;;;;;;2.72;0.90;;;;;;;22.52;100.00;99629.02;1661029;85;21651;-66
2022/07/07 09:24:00;;;;;;;1.40;0.70;;;;;;;22.43;100.00;99635.28;1657378;84;21102;-64
2022/07/07 09:26:42;;;;;;;2.77;1.10;;;;;;;22.35;100.00;99621.01;1660397;85;21055;-66
2022/07/07 09:29:13;;;;;;;2.67;1.20;;;;;;;22.29;100.00;99623.20;1658422;85;21081;-66
2022/07/07 09:32:04;;;;;;;1.90;0.78;;;;;;;22.13;100.00;99634.25;1658047;85;21003;-66
2022/07/07 09:34:37;;;;;;;1.72;0.78;;;;;;;22.14;100.00;99620.59;1711915;82;21122;-66
2022/07/07 09:39:56;;;;;;;1.92;0.88;;;;;;;21.98;100.00;99635.55;1714479;82;21061;-67
2022/07/07 09:42:33;;;;;;;2.55;0.95;;;;;;;21.98;100.00;99633.59;1712766;82;21011;-66
2022/07/07 09:45:06;;;;;;;2.10;1.07;;;;;;;22.05;100.00;99639.34;1710056;82;21041;-65
2022/07/07 09:47:33;;;;;;;1.70;0.80;;;;;;;22.14;100.00;99640.61;1710793;82;21027;-66
2022/07/07 09:50:11;;;;;;;3.55;1.05;;;;;;;22.09;100.00;99633.91;1712647;82;21547;-66
2022/07/07 09:52:45;;;;;;;3.05;1.02;;;;;;;22.10;100.00;99642.46;1711279;82;21031;-68
2022/07/07 09:55:11;;;;;;;1.50;0.90;;;;;;;22.06;100.00;99643.73;1709874;82;21950;-67
2022/07/07 09:57:44;;;;;;;4.22;1.10;;;;;;;21.84;100.00;99638.09;1709595;82;20979;-67
2022/07/07 10:00:12;;;;;;;2.47;0.85;;;;;;;21.83;100.00;99628.73;1708055;83;21012;-67
2022/07/07 10:02:38;;;;;;;2.35;1.00;;;;;;;21.98;100.00;99650.79;1710091;82;20991;-66
2022/07/07 10:05:06;;;;;;;5.30;0.90;;;;;;;22.15;100.00;99650.52;1710809;83;21046;-66
2022/07/07 10:07:34;;;;;;;1.75;0.80;;;;;;;22.35;100.00;99638.45;1708362;82;21022;-67
2022/07/07 10:10:05;;;;;;;1.50;0.90;;;;;;;22.47;100.00;99641.17;1717483;82;21018;-66
2022/07/07 10:12:32;;;;;;;1.47;0.88;;;;;;;22.50;100.00;99636.88;1722506;83;21006;-67
2022/07/07 10:15:11;;;;;;;2.20;0.90;;;;;;;22.59;100.00;99641.70;1671529;85;21416;-65
2022/07/07 10:17:40;;;;;;;3.83;0.90;;;;;;;22.66;100.00;99641.33;1671867;84;21002;-67
2022/07/07 10:20:07;;;;;;;2.10;0.70;;;;;;;22.72;100.00;99639.12;1671026;84;21063;-65
2022/07/07 10:22:34;;;;;;;1.12;0.62;;;;;;;22.81;100.00;99646.72;1668830;84;21614;-67
2022/07/07 10:25:05;;;;;;;1.90;0.70;;;;;;;22.88;100.00;99635.00;1679710;84;21094;-65
2022/07/07 10:27:33;;;;;;;3.05;1.40;;;;;;;22.78;100.00;99636.30;1674714;85;21029;-66
2022/07/07 10:30:00;;;;;;;4.62;2.35;;;;;;;22.76;100.00;99631.70;1674648;84;21653;-67
2022/07/07 10:32:41;;;;;;;2.00;0.85;;;;;;;22.84;100.00;99634.91;1673504;86;21665;-66
2022/07/07 10:35:12;;;;;;;2.55;1.47;;;;;;;23.03;100.00;99630.03;1656939;85;21054;-67
2022/07/07 10:37:53;;;;;;;2.02;1.10;;;;;;;23.09;100.00;99637.76;1684086;84;21015;-65
2022/07/07 10:40:27;;;;;;;2.45;0.80;;;;;;;23.15;100.00;99628.57;1679678;84;21465;-66
2022/07/07 10:43:32;;;;;;;2.70;0.90;;;;;;;23.19;100.00;99638.61;1682700;85;21551;-67
2022/07/07 10:46:01;;;;;;;2.77;0.90;;;;;;;23.26;100.00;99631.04;1679584;84;21046;-66
2022/07/07 10:48:51;;;;;;;2.67;1.20;;;;;;;23.30;100.00;99625.00;1653755;85;21090;-66
2022/07/07 10:51:25;;;;;;;2.85;0.80;;;;;;;23.41;100.00;99621.94;1668943;84;21059;-67
2022/07/07 10:54:08;;;;;;;1.65;0.82;;;;;;;23.41;100.00;99621.94;1672535;84;21434;-67
2022/07/07 10:56:55;;;;;;;2.80;0.72;;;;;;;23.42;100.00;99628.30;1656229;86;21090;-69
2022/07/07 10:59:23;;;;;;;1.62;0.80;;;;;;;23.57;100.00;99614.95;1635920;84;21522;-67
2022/07/07 11:02:08;;;;;;;3.77;0.70;;;;;;;23.57;100.00;99614.95;1675055;85;21059;-67
2022/07/07 11:04:51;;;;;;;1.47;0.80;;;;;;;23.76;100.00;99625.55;1679280;84;21133;-67
2022/07/07 11:07:19;;;;;;;1.90;0.90;;;;;;;23.76;100.00;99625.55;1671428;86;21468;-66
2022/07/07 11:10:10;;;;;;;1.32;0.68;;;;;;;23.70;100.00;99622.81;1671811;84;21040;-66
2022/07/07 11:12:48;;;;;;;2.02;0.95;;;;;;;23.56;100.00;99628.03;1645144;85;21647;-65
2022/07/07 11:15:25;;;;;;;1.57;0.75;;;;;;;23.40;100.00;99632.78;1672682;84;21101;-69
2022/07/07 11:17:59;;;;;;;2.58;0.68;;;;;;;23.40;100.00;99632.78;1666098;86;21540;-69
2022/07/07 11:20:29;;;;;;;1.40;0.60;;;;;;;23.54;100.00;99618.45;1714521;83;21029;-65
2022/07/07 11:23:13;;;;;;;3.52;0.80;;;;;;;23.54;100.00;99618.45;1689202;83;21129;-68
2022/07/07 11:25:40;;;;;;;2.70;0.78;;;;;;;23.61;100.00;99626.38;1666056;85;21085;-67
2022/07/07 11:28:08;;;;;;;3.05;0.80;;;;;;;23.63;100.00;99622.64;1691641;85;21053;-68
2022/07/07 11:30:36;;;;;;;1.40;0.78;;;;;;;23.59;100.00;99630.12;1703031;83;21058;-68
2022/07/07 11:33:03;;;;;;;1.72;0.50;;;;;;;23.48;100.00;99629.05;1691167;83;22006;-69
2022/07/07 11:35:31;;;;;;;2.25;0.62;;;;;;;23.48;100.00;99629.05;1664359;85;21046;-70
2022/07/07 11:37:58;;;;;;;1.77;0.70;;;;;;;23.51;100.00;99631.69;1674704;85;21888;-67
2022/07/07 11:40:25;;;;;;;3.25;1.00;;;;;;;23.55;100.00;99627.02;1710742;83;21081;-67
2022/07/07 11:42:52;;;;;;;2.52;0.57;;;;;;;23.65;100.00;99630.63;1703929;83;21076;-67